Time;durP1;ratioP1;P1;durP2;ratioP2;P2;SDS_P1;SDS_P2;PMS_P1;PMS_P2;Temp;Humidity;BMP_temperature;BMP_pressure;BME280_temperature;BME280_humidity;BME280_pressure;Samples;Min_cycle;Max_cycle;Signal;HPM_P1;HPM_P2
2022/10/24 00:01:39;;;;;;;6.18;0.80;;;;;;;12.48;55.95;100408.59;5027030;28;20049;-71
2022/10/24 00:04:05;;;;;;;4.30;1.00;;;;;;;12.58;55.55;100414.16;5028758;28;20302;-71
2022/10/24 00:06:30;;;;;;;2.80;0.55;;;;;;;12.44;55.84;100401.81;5028145;28;20037;-71
2022/10/24 00:08:56;;;;;;;5.75;0.85;;;;;;;12.47;55.68;100417.41;5026882;28;20037;-71
2022/10/24 00:11:25;;;;;;;3.03;0.50;;;;;;;12.33;56.16;100409.44;5029999;28;20032;-71
2022/10/24 00:13:51;;;;;;;2.60;0.40;;;;;;;12.60;55.31;100407.91;5001186;28;20611;-71
2022/10/24 00:16:17;;;;;;;4.13;0.50;;;;;;;12.41;55.66;100412.47;5025371;28;20044;-71
2022/10/24 00:18:43;;;;;;;2.58;0.60;;;;;;;12.58;55.32;100409.78;5027559;28;20110;-71
2022/10/24 00:21:08;;;;;;;3.42;0.57;;;;;;;12.50;55.16;100427.69;5028170;28;20037;-71
2022/10/24 00:23:35;;;;;;;3.08;0.70;;;;;;;12.38;55.88;100410.00;5028010;28;20514;-71
2022/10/24 00:26:02;;;;;;;6.47;0.70;;;;;;;12.31;56.22;100408.66;5028808;28;20064;-71
2022/10/24 00:28:30;;;;;;;2.83;0.75;;;;;;;12.41;55.84;100412.47;5028644;28;20045;-71
2022/10/24 00:30:56;;;;;;;4.25;0.55;;;;;;;12.42;55.58;100420.28;5028028;28;20040;-71
2022/10/24 00:33:22;;;;;;;5.13;0.70;;;;;;;12.58;55.19;100415.03;5028229;28;20056;-71
2022/10/24 00:35:47;;;;;;;2.65;0.70;;;;;;;12.66;54.72;100423.28;5026115;28;20033;-73
2022/10/24 00:38:13;;;;;;;9.48;0.68;;;;;;;12.52;55.43;100419.75;5028894;28;20513;-71
2022/10/24 00:40:39;;;;;;;2.65;0.88;;;;;;;12.32;55.69;100420.84;5028459;28;20189;-71
2022/10/24 00:43:13;;;;;;;7.05;0.85;;;;;;;12.40;55.58;100422.13;5027588;28;20061;-71
2022/10/24 00:45:43;;;;;;;1.35;0.55;;;;;;;12.27;55.74;100419.31;5026243;28;20040;-71
2022/10/24 00:48:30;;;;;;;3.90;1.02;;;;;;;12.37;55.56;100416.19;5029715;28;20080;-71
2022/10/24 00:51:13;;;;;;;3.67;0.38;;;;;;;12.69;54.42;100412.66;5026406;28;20576;-71
2022/10/24 00:53:44;;;;;;;3.92;0.55;;;;;;;12.69;54.16;100411.81;5024785;28;20044;-71
2022/10/24 00:56:12;;;;;;;6.25;1.20;;;;;;;12.68;54.43;100416.19;5025788;28;20033;-73
2022/10/24 00:58:40;;;;;;;2.13;0.57;;;;;;;12.76;54.28;100402.69;4994464;28;20084;-70
2022/10/24 01:01:07;;;;;;;1.80;0.82;;;;;;;12.67;54.76;100397.94;5038402;28;20045;-72
2022/10/24 01:03:33;;;;;;;2.10;0.50;;;;;;;12.60;55.08;100393.94;5036386;28;20075;-72
2022/10/24 01:06:36;;;;;;;3.67;0.47;;;;;;;12.89;54.23;100393.19;5034496;28;20131;-73
2022/10/24 01:09:24;;;;;;;4.05;1.17;;;;;;;12.95;53.91;100391.97;5028451;28;20053;-73
2022/10/24 01:12:15;;;;;;;2.38;0.30;;;;;;;13.00;53.58;100397.78;5027789;28;20208;-70
2022/10/24 01:14:51;;;;;;;1.27;0.60;;;;;;;12.97;53.56;100394.50;5025755;28;20116;-71
2022/10/24 01:17:44;;;;;;;1.65;0.60;;;;;;;12.97;53.52;100384.03;5025377;28;20847;-71
2022/10/24 01:20:33;;;;;;;4.72;0.50;;;;;;;13.02;52.87;100389.84;5007286;28;20437;-71
2022/10/24 01:23:11;;;;;;;2.45;0.30;;;;;;;12.99;53.48;100395.28;5025093;28;20049;-72
2022/10/24 01:25:58;;;;;;;2.75;0.47;;;;;;;12.93;53.20;100393.84;5024703;28;20025;-71
2022/10/24 01:28:35;;;;;;;4.10;1.00;;;;;;;12.65;53.89;100392.75;5026165;28;20037;-71
2022/10/24 01:31:16;;;;;;;6.18;0.70;;;;;;;12.60;54.27;100381.69;5026027;28;20037;-71
2022/10/24 01:33:52;;;;;;;5.83;0.93;;;;;;;12.60;54.25;100386.94;5024393;28;20501;-71
2022/10/24 01:36:32;;;;;;;5.90;0.65;;;;;;;12.58;54.40;100378.31;5023996;28;20422;-72
2022/10/24 01:39:02;;;;;;;2.05;0.50;;;;;;;12.45;54.57;100388.63;5005871;28;20037;-71
2022/10/24 01:41:30;;;;;;;2.47;0.30;;;;;;;12.36;54.77;100385.69;5028391;28;20352;-71
2022/10/24 01:44:08;;;;;;;2.10;0.50;;;;;;;12.32;54.89;100392.88;5006640;28;20048;-70
2022/10/24 01:46:41;;;;;;;4.50;0.65;;;;;;;12.11;55.68;100389.66;5025174;28;20083;-71
2022/10/24 01:49:14;;;;;;;5.15;0.60;;;;;;;12.23;55.81;100399.44;5009005;28;20054;-71
2022/10/24 01:51:40;;;;;;;1.90;0.30;;;;;;;12.24;55.37;100385.41;5010421;28;20037;-71
2022/10/24 01:54:10;;;;;;;5.50;0.93;;;;;;;12.39;54.59;100382.88;5025996;28;20059;-71
2022/10/24 01:56:36;;;;;;;3.83;0.47;;;;;;;12.34;55.02;100377.06;5022303;28;20414;-72
2022/10/24 01:59:27;;;;;;;5.45;0.68;;;;;;;12.31;55.32;100382.47;5026578;28;20038;-71
2022/10/24 02:02:03;;;;;;;3.25;0.50;;;;;;;12.34;55.17;100379.69;5004567;28;20049;-71
2022/10/24 02:04:31;;;;;;;5.03;0.68;;;;;;;12.43;54.57;100368.69;5027370;28;20502;-71
2022/10/24 02:07:00;;;;;;;2.55;0.75;;;;;;;12.37;55.01;100369.03;5025273;28;20068;-71
2022/10/24 02:09:27;;;;;;;2.78;0.60;;;;;;;12.32;54.91;100363.19;5008789;28;20041;-72
2022/10/24 02:11:55;;;;;;;1.48;0.30;;;;;;;12.36;54.49;100357.69;5009769;28;22543;-72
2022/10/24 02:14:33;;;;;;;5.82;0.50;;;;;;;12.32;54.81;100350.09;5027466;28;20413;-71
2022/10/24 02:17:01;;;;;;;2.95;0.50;;;;;;;12.29;54.91;100351.13;5025033;28;20530;-72
2022/10/24 02:19:27;;;;;;;5.03;0.50;;;;;;;12.24;55.38;100340.03;5012244;28;20525;-72
2022/10/24 02:22:13;;;;;;;3.67;0.60;;;;;;;12.28;55.21;100342.38;5021041;28;20175;-72
2022/10/24 02:24:54;;;;;;;4.22;0.30;;;;;;;12.29;54.78;100338.84;5024384;28;20553;-72
2022/10/24 02:27:28;;;;;;;5.28;0.50;;;;;;;12.27;55.17;100326.78;5022820;28;20033;-71
2022/10/24 02:30:10;;;;;;;4.50;0.75;;;;;;;12.31;55.05;100322.19;5026344;28;20095;-71
2022/10/24 02:32:42;;;;;;;3.13;0.50;;;;;;;12.19;55.54;100319.31;5025461;28;20040;-71
2022/10/24 02:35:10;;;;;;;1.65;0.50;;;;;;;12.31;54.99;100303.84;5024811;28;20100;-71
2022/10/24 02:37:42;;;;;;;4.65;1.30;;;;;;;12.38;54.45;100297.31;5024487;28;20033;-71
2022/10/24 02:40:10;;;;;;;5.57;0.68;;;;;;;12.34;54.78;100306.31;5026943;28;20148;-72
2022/10/24 02:42:38;;;;;;;1.63;0.40;;;;;;;12.46;54.64;100297.75;5024218;28;20361;-71
2022/10/24 02:45:06;;;;;;;2.45;0.57;;;;;;;12.42;55.09;100304.09;5028652;28;20030;-72
2022/10/24 02:47:33;;;;;;;7.65;0.50;;;;;;;12.43;54.74;100290.91;5027426;28;20041;-71
2022/10/24 02:49:58;;;;;;;9.85;0.60;;;;;;;12.45;54.63;100299.53;5028846;28;20059;-72
2022/10/24 02:52:24;;;;;;;1.58;0.40;;;;;;;12.46;54.49;100290.72;5029718;28;20038;-71
2022/10/24 02:54:50;;;;;;;2.85;0.40;;;;;;;12.55;54.79;100286.72;5011273;28;20037;-71
2022/10/24 02:57:16;;;;;;;2.13;0.40;;;;;;;12.50;54.78;100294.84;5027129;28;20602;-72
2022/10/24 02:59:41;;;;;;;3.08;0.60;;;;;;;12.51;55.24;100285.19;5027038;28;20037;-71
2022/10/24 03:02:07;;;;;;;4.95;0.60;;;;;;;12.69;54.76;100288.56;5015485;28;20070;-71
2022/10/24 03:04:32;;;;;;;5.40;1.17;;;;;;;12.75;54.90;100290.84;5029785;28;20060;-71
2022/10/24 03:06:58;;;;;;;2.70;0.60;;;;;;;12.80;54.54;100282.69;5009552;28;20532;-71
2022/10/24 03:09:23;;;;;;;2.80;0.60;;;;;;;12.75;54.64;100275.09;5019867;28;20041;-71
2022/10/24 03:11:49;;;;;;;4.57;0.93;;;;;;;12.68;55.23;100282.47;5027531;28;20055;-73
2022/10/24 03:14:14;;;;;;;6.90;2.05;;;;;;;12.62;55.27;100266.25;5033195;28;20603;-72
2022/10/24 03:16:40;;;;;;;6.13;1.17;;;;;;;12.77;54.72;100262.75;5028217;28;20048;-73
2022/10/24 03:19:05;;;;;;;4.07;0.85;;;;;;;12.54;55.75;100260.63;5031447;28;20048;-70
2022/10/24 03:21:31;;;;;;;5.22;0.55;;;;;;;12.74;54.78;100256.88;5029845;28;20088;-71
2022/10/24 03:23:56;;;;;;;3.75;1.27;;;;;;;12.72;54.85;100258.72;5025809;28;20133;-73
2022/10/24 03:26:22;;;;;;;5.50;1.33;;;;;;;12.67;55.29;100251.94;5030855;28;20036;-71
2022/10/24 03:28:47;;;;;;;5.57;0.70;;;;;;;12.75;54.96;100248.06;5026676;28;20038;-71
2022/10/24 03:31:13;;;;;;;1.70;0.55;;;;;;;12.77;54.85;100251.44;5033213;28;20099;-71
2022/10/24 03:33:38;;;;;;;5.05;1.23;;;;;;;12.35;56.53;100245.09;5026976;28;20037;-70
2022/10/24 03:36:05;;;;;;;3.45;0.73;;;;;;;12.65;55.08;100243.31;5030687;28;20048;-71
2022/10/24 03:38:31;;;;;;;5.80;1.10;;;;;;;12.67;55.27;100240.63;5030573;28;20055;-70
2022/10/24 03:40:56;;;;;;;7.80;0.70;;;;;;;12.67;55.19;100238.84;5027016;28;20030;-70
2022/10/24 03:43:22;;;;;;;11.82;0.98;;;;;;;12.73;54.70;100229.78;5028817;28;20044;-71
2022/10/24 03:45:47;;;;;;;3.17;0.68;;;;;;;12.31;56.15;100235.72;5008451;28;20036;-71
2022/10/24 03:48:13;;;;;;;3.67;0.85;;;;;;;12.56;55.20;100228.13;5028734;28;20055;-71
2022/10/24 03:50:39;;;;;;;2.10;0.93;;;;;;;12.53;55.48;100228.28;5010353;28;20057;-71
2022/10/24 03:53:04;;;;;;;6.22;0.73;;;;;;;12.41;55.73;100227.25;5017762;28;20049;-71
2022/10/24 03:55:30;;;;;;;4.05;1.92;;;;;;;12.43;55.42;100238.47;5029460;28;20037;-71
2022/10/24 03:57:56;;;;;;;1.27;0.60;;;;;;;12.49;55.03;100230.28;5027066;28;20083;-72
2022/10/24 04:00:22;;;;;;;3.60;0.82;;;;;;;12.48;55.51;100241.66;5027536;28;20044;-71
2022/10/24 04:02:50;;;;;;;1.48;0.65;;;;;;;12.57;55.00;100236.84;5014579;28;20497;-71
2022/10/24 04:05:16;;;;;;;7.72;1.00;;;;;;;12.45;55.19;100230.53;5029803;28;20047;-71
2022/10/24 04:07:41;;;;;;;5.57;0.77;;;;;;;12.18;56.23;100228.56;5016507;28;20448;-70
2022/10/24 04:10:08;;;;;;;9.18;1.10;;;;;;;12.30;55.86;100227.03;5030138;28;20037;-72
2022/10/24 04:12:33;;;;;;;3.05;0.70;;;;;;;12.22;55.74;100235.34;5028363;28;20420;-71
2022/10/24 04:14:59;;;;;;;2.78;0.60;;;;;;;12.50;54.96;100228.50;5027720;28;20409;-72
2022/10/24 04:17:24;;;;;;;4.20;0.60;;;;;;;12.50;54.75;100223.25;5016502;28;20332;-71
2022/10/24 04:19:49;;;;;;;2.42;0.60;;;;;;;12.57;54.49;100227.19;5028767;28;22996;-71
2022/10/24 04:22:15;;;;;;;1.85;0.50;;;;;;;12.53;54.68;100243.19;5024379;28;20342;-72
2022/10/24 04:24:40;;;;;;;2.45;0.60;;;;;;;12.54;54.79;100240.47;5027770;28;20043;-72
2022/10/24 04:27:06;;;;;;;4.13;0.60;;;;;;;12.77;54.03;100235.69;5027188;28;20048;-71
2022/10/24 04:29:32;;;;;;;2.28;0.70;;;;;;;12.58;54.65;100246.38;5028153;28;20435;-72
2022/10/24 04:31:58;;;;;;;5.18;0.70;;;;;;;12.85;53.65;100243.97;5017292;28;20045;-71
2022/10/24 04:34:23;;;;;;;4.57;0.63;;;;;;;12.91;53.70;100240.94;5008260;28;20455;-73
2022/10/24 04:36:51;;;;;;;6.57;0.70;;;;;;;12.97;53.48;100243.22;5025048;28;20041;-71
2022/10/24 04:39:18;;;;;;;8.90;1.30;;;;;;;13.03;53.18;100232.34;5026377;28;20041;-71
2022/10/24 04:41:44;;;;;;;2.25;0.70;;;;;;;12.81;53.97;100234.59;5026287;28;20057;-73
2022/10/24 04:44:09;;;;;;;6.10;1.15;;;;;;;13.00;53.56;100235.16;5018148;28;20032;-71
2022/10/24 04:46:35;;;;;;;3.03;0.98;;;;;;;12.70;54.35;100227.34;5026786;28;20366;-72
2022/10/24 04:49:00;;;;;;;3.10;0.77;;;;;;;13.02;53.21;100230.66;5028542;28;20036;-72
2022/10/24 04:51:26;;;;;;;5.03;1.00;;;;;;;12.93;53.35;100225.13;5030489;28;20040;-72
2022/10/24 04:53:51;;;;;;;1.80;0.93;;;;;;;12.95;53.21;100233.75;5025163;28;20459;-70
2022/10/24 04:56:17;;;;;;;6.13;1.02;;;;;;;13.00;52.82;100239.56;5029220;28;20405;-72
2022/10/24 04:58:43;;;;;;;7.53;0.73;;;;;;;12.95;52.68;100233.75;5024127;28;20041;-72
2022/10/24 05:01:09;;;;;;;7.32;0.95;;;;;;;13.13;52.35;100226.53;5028362;28;20061;-72
2022/10/24 05:03:34;;;;;;;8.07;0.85;;;;;;;13.11;52.07;100224.84;5025978;28;20057;-70
2022/10/24 05:06:00;;;;;;;2.75;0.45;;;;;;;13.06;51.96;100229.53;5027987;28;20094;-71
2022/10/24 05:08:26;;;;;;;8.02;0.65;;;;;;;13.34;50.77;100222.63;5028851;28;20128;-73
2022/10/24 05:10:51;;;;;;;2.45;0.60;;;;;;;13.25;51.14;100231.03;5006180;28;20379;-71
2022/10/24 05:13:17;;;;;;;3.80;0.63;;;;;;;13.01;51.71;100228.97;5027395;28;20057;-70
2022/10/24 05:15:43;;;;;;;5.07;0.57;;;;;;;12.95;51.68;100228.50;5025174;28;20492;-70
2022/10/24 05:18:08;;;;;;;4.25;0.55;;;;;;;12.98;51.37;100229.19;5012016;28;20041;-74
2022/10/24 05:20:34;;;;;;;5.07;0.90;;;;;;;13.04;51.31;100223.53;5028481;28;20523;-71
2022/10/24 05:22:59;;;;;;;3.65;0.70;;;;;;;13.01;51.29;100226.34;5026046;28;20370;-71
2022/10/24 05:25:25;;;;;;;5.38;0.70;;;;;;;12.73;52.28;100228.94;5011416;28;20029;-73
2022/10/24 05:27:50;;;;;;;5.50;1.35;;;;;;;12.53;52.67;100220.44;5027817;28;20071;-71
2022/10/24 05:30:16;;;;;;;7.40;0.75;;;;;;;12.58;52.39;100220.16;5028557;28;20064;-72
2022/10/24 05:32:42;;;;;;;3.13;0.77;;;;;;;12.38;52.78;100229.19;5023401;28;20520;-71
2022/10/24 05:35:07;;;;;;;6.38;0.70;;;;;;;12.66;51.92;100221.41;5027597;28;20036;-71
2022/10/24 05:37:33;;;;;;;5.80;0.98;;;;;;;12.70;51.66;100233.44;5026568;28;20099;-71
2022/10/24 05:39:58;;;;;;;6.07;0.47;;;;;;;12.35;52.67;100234.63;5029637;28;20223;-72
2022/10/24 05:42:23;;;;;;;3.05;0.82;;;;;;;12.37;52.48;100230.97;5026007;28;20178;-70
2022/10/24 05:44:49;;;;;;;6.30;0.73;;;;;;;12.62;51.61;100233.00;5008459;28;20128;-71
2022/10/24 05:47:14;;;;;;;3.17;0.60;;;;;;;12.70;51.31;100235.22;5023795;28;20061;-71
2022/10/24 05:49:40;;;;;;;2.30;0.63;;;;;;;12.58;51.50;100231.50;5026534;28;20029;-71
2022/10/24 05:52:06;;;;;;;4.13;0.70;;;;;;;12.60;51.46;100234.03;5025650;28;20063;-70
2022/10/24 05:54:31;;;;;;;4.75;0.77;;;;;;;12.74;50.84;100231.47;5026130;28;20029;-72
2022/10/24 05:56:57;;;;;;;2.97;1.33;;;;;;;12.53;51.53;100233.53;5027460;28;20041;-72
2022/10/24 05:59:22;;;;;;;3.30;0.75;;;;;;;12.42;51.86;100235.94;5032675;28;20529;-72
2022/10/24 06:01:48;;;;;;;1.70;0.40;;;;;;;12.57;51.26;100228.97;5033142;28;20075;-73
2022/10/24 06:04:13;;;;;;;4.68;0.63;;;;;;;12.60;51.06;100227.03;5033045;28;20422;-70
2022/10/24 06:06:41;;;;;;;4.57;0.77;;;;;;;12.40;51.50;100229.94;5025751;28;20041;-71
2022/10/24 06:09:07;;;;;;;5.35;0.50;;;;;;;12.31;51.46;100233.09;5030103;28;20033;-72
2022/10/24 06:11:32;;;;;;;2.22;0.70;;;;;;;12.10;52.07;100222.09;5026154;28;20099;-73
2022/10/24 06:13:58;;;;;;;5.07;0.68;;;;;;;12.43;50.71;100221.91;5023776;28;20049;-73
2022/10/24 06:16:25;;;;;;;4.03;0.57;;;;;;;12.57;50.15;100228.97;5026698;28;20068;-71
2022/10/24 06:18:50;;;;;;;3.33;1.05;;;;;;;12.48;50.57;100227.72;5022728;28;22268;-72
2022/10/24 06:21:16;;;;;;;3.63;1.35;;;;;;;12.37;50.94;100232.75;5030146;28;20467;-70
2022/10/24 06:23:41;;;;;;;4.93;0.70;;;;;;;12.40;50.95;100235.19;5027710;28;20052;-71
2022/10/24 06:26:13;;;;;;;4.07;0.65;;;;;;;12.46;50.81;100238.28;5030796;28;20080;-71
2022/10/24 06:28:39;;;;;;;3.40;0.65;;;;;;;12.43;50.75;100242.88;5030895;28;20036;-71
2022/10/24 06:31:06;;;;;;;3.90;0.95;;;;;;;12.42;50.85;100251.66;5029817;28;20583;-71
2022/10/24 06:33:32;;;;;;;2.67;0.55;;;;;;;12.56;50.22;100243.88;5011633;28;20033;-71
2022/10/24 06:36:04;;;;;;;1.90;0.45;;;;;;;12.37;50.53;100249.31;5029750;28;20025;-71
2022/10/24 06:38:30;;;;;;;3.90;0.75;;;;;;;12.26;50.58;100244.69;5012813;28;20052;-71
2022/10/24 06:40:56;;;;;;;10.23;0.50;;;;;;;12.46;49.95;100247.94;5028973;28;20314;-71
2022/10/24 06:43:21;;;;;;;3.50;0.30;;;;;;;12.38;49.92;100239.66;5030790;28;20046;-71
2022/10/24 06:45:47;;;;;;;3.58;0.50;;;;;;;12.05;50.53;100238.91;5026854;28;20399;-71
2022/10/24 06:48:12;;;;;;;4.03;0.40;;;;;;;12.46;49.75;100232.22;5013212;28;20049;-71
2022/10/24 06:50:39;;;;;;;5.25;1.27;;;;;;;12.67;48.93;100241.47;5027447;28;20425;-70
2022/10/24 06:53:08;;;;;;;3.47;0.70;;;;;;;12.76;48.83;100241.84;5012095;28;20076;-71
2022/10/24 06:55:37;;;;;;;1.80;0.60;;;;;;;12.80;48.65;100252.06;5028637;28;20075;-71
2022/10/24 06:58:05;;;;;;;1.65;0.38;;;;;;;12.65;49.07;100243.31;5031917;28;20356;-71
2022/10/24 07:00:32;;;;;;;3.22;0.65;;;;;;;12.82;48.63;100249.38;5031652;28;20037;-72
2022/10/24 07:02:58;;;;;;;4.75;0.75;;;;;;;12.79;48.94;100253.03;5027912;28;20560;-72
2022/10/24 07:05:23;;;;;;;1.67;0.40;;;;;;;12.80;48.93;100259.09;5016126;28;20032;-72
2022/10/24 07:07:49;;;;;;;2.85;0.50;;;;;;;13.06;48.16;100258.41;5026321;28;20102;-71
2022/10/24 07:10:14;;;;;;;6.22;0.57;;;;;;;12.96;48.73;100254.66;5029929;28;20051;-72
2022/10/24 07:12:42;;;;;;;4.80;0.50;;;;;;;13.08;48.34;100259.16;5016165;28;20041;-72
2022/10/24 07:15:08;;;;;;;8.57;0.85;;;;;;;12.75;49.33;100264.63;5027612;28;20033;-71
2022/10/24 07:17:39;;;;;;;3.65;1.00;;;;;;;13.07;48.43;100273.22;5026948;28;20049;-72
2022/10/24 07:20:05;;;;;;;4.63;0.70;;;;;;;12.99;48.51;100266.75;5028196;28;20049;-72
2022/10/24 07:22:30;;;;;;;1.58;0.50;;;;;;;13.08;48.30;100272.25;5007778;28;20106;-72
2022/10/24 07:24:56;;;;;;;8.48;0.80;;;;;;;13.16;48.44;100274.44;5027757;28;20043;-71
2022/10/24 07:27:22;;;;;;;3.22;0.57;;;;;;;13.04;48.35;100265.50;5011532;28;20047;-71
2022/10/24 07:29:47;;;;;;;2.33;0.55;;;;;;;13.17;48.42;100270.03;5026322;28;20573;-71
2022/10/24 07:32:13;;;;;;;3.10;0.70;;;;;;;13.15;48.77;100279.78;5028337;28;20502;-71
2022/10/24 07:34:39;;;;;;;4.38;1.15;;;;;;;13.17;48.48;100259.53;5025189;28;20025;-72
2022/10/24 07:37:05;;;;;;;4.32;0.85;;;;;;;13.34;48.03;100267.22;5010474;28;20174;-71
2022/10/24 07:39:30;;;;;;;3.22;0.40;;;;;;;13.34;48.22;100267.22;5029116;28;20037;-71
2022/10/24 07:41:56;;;;;;;4.45;0.60;;;;;;;13.40;48.02;100263.38;5025118;28;20097;-71
2022/10/24 07:44:21;;;;;;;3.70;0.40;;;;;;;13.36;48.15;100272.38;5028318;28;20033;-71
2022/10/24 07:46:47;;;;;;;7.63;0.50;;;;;;;13.47;47.87;100278.66;5026579;28;20131;-71
2022/10/24 07:49:12;;;;;;;5.50;0.85;;;;;;;13.53;47.70;100267.75;5029545;28;20057;-72
2022/10/24 07:51:39;;;;;;;2.00;0.60;;;;;;;13.71;47.31;100267.59;5007294;28;20545;-71
2022/10/24 07:54:05;;;;;;;1.48;0.32;;;;;;;13.45;47.89;100264.78;5012960;28;20083;-71
2022/10/24 07:56:30;;;;;;;1.17;0.28;;;;;;;13.75;47.36;100260.38;5027231;28;20555;-71
2022/10/24 07:58:57;;;;;;;2.92;1.02;;;;;;;13.54;47.93;100258.13;5027833;28;20107;-71
2022/10/24 08:01:24;;;;;;;4.05;0.43;;;;;;;13.68;47.32;100260.75;5031352;28;20036;-71
2022/10/24 08:03:50;;;;;;;6.18;1.10;;;;;;;13.49;47.80;100255.75;5023313;28;20298;-71
2022/10/24 08:06:18;;;;;;;1.85;0.38;;;;;;;14.06;46.74;100244.31;5028714;28;20232;-71
2022/10/24 08:08:44;;;;;;;1.60;0.50;;;;;;;14.67;45.35;100244.72;5026896;28;20052;-71
2022/10/24 08:11:18;;;;;;;3.50;0.38;;;;;;;16.20;41.90;100248.09;5028603;28;20029;-72
2022/10/24 08:13:44;;;;;;;5.82;0.50;;;;;;;18.23;37.16;100238.50;5023998;28;20107;-71
2022/10/24 08:16:12;;;;;;;2.15;0.38;;;;;;;18.95;35.31;100236.06;5029758;28;20482;-71
2022/10/24 08:18:38;;;;;;;5.72;0.70;;;;;;;18.52;36.66;100229.06;5023924;28;20049;-70
2022/10/24 08:21:05;;;;;;;5.35;0.40;;;;;;;17.62;38.06;100241.63;5026885;28;20061;-71
2022/10/24 08:23:32;;;;;;;4.90;0.40;;;;;;;16.76;39.84;100231.63;5009273;28;20370;-70
2022/10/24 08:25:58;;;;;;;3.67;0.50;;;;;;;15.97;41.65;100232.16;5027635;28;20289;-72
2022/10/24 08:28:24;;;;;;;4.78;0.55;;;;;;;15.62;42.35;100234.69;5028695;28;20472;-71
2022/10/24 08:31:00;;;;;;;4.93;0.43;;;;;;;15.79;42.29;100238.72;5028601;28;20033;-72
2022/10/24 08:33:27;;;;;;;3.28;0.68;;;;;;;15.90;42.11;100236.16;5027862;28;20037;-72
2022/10/24 08:36:00;;;;;;;4.07;0.20;;;;;;;15.09;43.38;100232.22;5023964;28;20663;-73
2022/10/24 08:38:27;;;;;;;2.22;0.52;;;;;;;15.24;43.26;100230.34;5010127;28;20056;-72
2022/10/24 08:40:53;;;;;;;1.52;0.35;;;;;;;14.48;44.89;100239.03;5023310;28;20521;-70
2022/10/24 08:43:19;;;;;;;3.33;0.73;;;;;;;15.09;43.74;100234.00;5024653;28;20129;-72
2022/10/24 08:45:59;;;;;;;5.22;0.50;;;;;;;15.25;43.53;100229.38;5025901;28;20106;-71
2022/10/24 08:48:33;;;;;;;3.90;0.60;;;;;;;15.43;42.88;100229.03;5026197;28;20048;-71
2022/10/24 08:51:15;;;;;;;5.82;0.50;;;;;;;14.33;44.86;100228.53;5026456;28;20033;-72
2022/10/24 08:53:41;;;;;;;2.67;0.55;;;;;;;14.66;44.61;100223.81;5026734;28;20066;-71
2022/10/24 08:56:10;;;;;;;4.43;0.43;;;;;;;15.07;44.03;100218.31;5025627;28;20573;-73
2022/10/24 08:58:39;;;;;;;5.65;0.25;;;;;;;;;;5025245;28;20553;-70
2022/10/24 09:01:12;;;;;;;3.08;0.40;;;;;;;14.62;44.78;100230.22;5028855;28;20037;-71
2022/10/24 09:03:51;;;;;;;9.93;1.27;;;;;;;14.81;44.94;100225.38;5019972;28;20049;-71
2022/10/24 09:06:19;;;;;;;7.43;0.57;;;;;;;15.32;43.77;100221.91;5014180;28;20092;-72
2022/10/24 09:08:57;;;;;;;6.07;0.30;;;;;;;14.77;44.61;100223.91;5024151;28;20084;-72
2022/10/24 09:11:34;;;;;;;1.00;0.20;;;;;;;15.36;43.32;100220.72;4998886;28;20033;-72
2022/10/24 09:14:05;;;;;;;2.83;0.77;;;;;;;15.96;42.27;100219.06;5025386;28;20045;-72
2022/10/24 09:16:31;;;;;;;3.50;1.10;;;;;;;15.22;43.01;100212.97;5026694;28;20797;-71
2022/10/24 09:18:57;;;;;;;5.45;0.40;;;;;;;14.64;44.30;100228.31;5007913;28;20427;-72
2022/10/24 09:21:24;;;;;;;4.35;0.40;;;;;;;15.35;42.69;100224.34;5013544;28;20061;-73
2022/10/24 09:23:50;;;;;;;4.35;0.40;;;;;;;15.65;42.47;100231.00;4999428;28;20422;-71
2022/10/24 09:26:31;;;;;;;4.18;0.30;;;;;;;16.09;41.92;100224.31;5007504;28;20032;-71
2022/10/24 09:28:57;;;;;;;4.57;0.20;;;;;;;15.36;42.75;100226.00;5026692;28;20052;-71
2022/10/24 09:31:25;;;;;;;0.88;0.10;;;;;;;15.15;43.64;100229.16;5025408;28;20032;-71
2022/10/24 09:33:51;;;;;;;1.15;0.40;;;;;;;16.07;41.50;100231.50;5025153;28;22914;-71
2022/10/24 09:36:19;;;;;;;7.68;1.00;;;;;;;15.48;42.32;100238.31;5026034;28;20365;-70
2022/10/24 09:38:47;;;;;;;4.15;0.40;;;;;;;14.86;42.87;100217.19;5024660;28;20037;-71
2022/10/24 09:41:23;;;;;;;1.40;0.20;;;;;;;14.14;45.11;100226.28;5012270;28;20033;-71
2022/10/24 09:43:55;;;;;;;4.70;0.47;;;;;;;15.36;43.47;100228.63;5013662;28;20064;-72
2022/10/24 09:46:25;;;;;;;5.57;0.30;;;;;;;15.57;42.85;100237.66;5025118;28;20059;-72
2022/10/24 09:48:58;;;;;;;2.25;0.20;;;;;;;14.97;43.69;100226.00;5007724;28;20064;-71
2022/10/24 09:51:34;;;;;;;6.93;0.57;;;;;;;15.12;43.58;100239.88;5025562;28;20172;-72
2022/10/24 09:54:23;;;;;;;4.22;0.20;;;;;;;15.13;43.18;100231.06;5011995;28;20041;-71
2022/10/24 09:57:01;;;;;;;7.80;0.30;;;;;;;15.56;42.73;100243.84;5024034;28;20033;-72
2022/10/24 09:59:40;;;;;;;2.75;0.28;;;;;;;15.48;42.85;100234.81;5009028;28;20037;-72
2022/10/24 10:02:18;;;;;;;6.28;0.32;;;;;;;14.95;43.58;100235.81;5027069;28;20400;-72
2022/10/24 10:04:45;;;;;;;1.48;0.20;;;;;;;15.34;42.87;100239.25;5024632;28;20094;-72
2022/10/24 10:07:15;;;;;;;1.10;0.20;;;;;;;15.30;42.80;100231.69;5006423;28;20053;-72
2022/10/24 10:09:56;;;;;;;2.95;0.75;;;;;;;15.58;42.47;100234.06;5039549;28;20089;-72
2022/10/24 10:12:33;;;;;;;4.72;0.50;;;;;;;15.79;41.97;100241.38;5024217;28;20072;-72
2022/10/24 10:15:25;;;;;;;2.17;0.20;;;;;;;15.70;42.57;100249.94;5008426;28;20033;-72
2022/10/24 10:17:54;;;;;;;5.43;0.73;;;;;;;15.51;42.16;100246.00;5009351;28;20689;-71
2022/10/24 10:20:28;;;;;;;5.63;0.40;;;;;;;15.45;42.51;100246.41;5009013;28;20045;-72
2022/10/24 10:22:54;;;;;;;2.80;0.22;;;;;;;14.96;43.24;100249.78;5024059;28;20542;-71
2022/10/24 10:25:31;;;;;;;3.17;0.13;;;;;;;14.16;44.60;100234.06;5027676;28;20113;-72
2022/10/24 10:27:57;;;;;;;8.07;0.43;;;;;;;14.23;44.56;100256.38;5024907;28;20052;-73
2022/10/24 10:30:23;;;;;;;2.63;0.30;;;;;;;15.05;43.27;100250.97;5015361;28;20041;-72
2022/10/24 10:33:13;;;;;;;4.15;0.70;;;;;;;15.06;43.79;100252.63;5025255;28;20333;-72
2022/10/24 10:35:42;;;;;;;4.35;0.50;;;;;;;15.11;43.66;100259.28;5026044;28;20104;-71
2022/10/24 10:38:30;;;;;;;4.90;0.22;;;;;;;14.79;43.97;100266.75;5026494;28;20530;-72
2022/10/24 10:41:05;;;;;;;2.75;0.38;;;;;;;14.96;43.74;100260.31;5005574;28;20770;-71
2022/10/24 10:44:16;;;;;;;2.95;0.20;;;;;;;14.22;45.20;100254.69;5010093;28;20037;-72
2022/10/24 10:47:10;;;;;;;3.03;0.55;;;;;;;14.35;44.39;100276.59;5017129;28;20242;-72
2022/10/24 10:49:40;;;;;;;6.75;0.65;;;;;;;14.14;45.42;100283.22;5026266;28;20062;-72
2022/10/24 10:52:22;;;;;;;6.82;0.30;;;;;;;14.68;44.42;100280.63;5026657;28;20041;-71
2022/10/24 10:55:18;;;;;;;1.38;0.20;;;;;;;14.35;44.99;100281.84;5011288;28;20029;-72
2022/10/24 10:57:49;;;;;;;5.05;0.30;;;;;;;14.26;45.25;100277.19;5009279;28;20045;-72
2022/10/24 11:00:21;;;;;;;4.70;0.40;;;;;;;15.22;43.39;100276.16;5032271;28;20103;-72
2022/10/24 11:02:46;;;;;;;2.88;0.30;;;;;;;14.69;44.14;100279.66;5031529;28;20058;-72
2022/10/24 11:05:34;;;;;;;4.85;0.43;;;;;;;14.67;44.62;100270.19;5036047;28;20457;-71
2022/10/24 11:08:09;;;;;;;5.00;0.60;;;;;;;14.66;44.78;100273.78;5024916;28;20045;-70
2022/10/24 11:11:11;;;;;;;4.78;0.30;;;;;;;15.12;43.88;100270.63;5028748;28;20029;-71
2022/10/24 11:13:47;;;;;;;10.82;1.48;;;;;;;14.90;44.50;100279.16;5030212;28;20064;-71
2022/10/24 11:16:20;;;;;;;1.90;0.40;;;;;;;14.83;44.94;100285.78;5031556;28;20275;-71
2022/10/24 11:18:49;;;;;;;2.35;0.22;;;;;;;14.94;44.09;100273.56;5011626;28;20130;-71
2022/10/24 11:21:20;;;;;;;2.45;0.30;;;;;;;14.94;43.82;100267.47;5028840;28;20045;-71
2022/10/24 11:24:01;;;;;;;7.88;0.40;;;;;;;14.88;44.00;100283.66;5026870;28;20167;-72
2022/10/24 11:26:29;;;;;;;2.95;0.20;;;;;;;14.67;44.99;100278.06;5012807;28;20243;-71
2022/10/24 11:28:57;;;;;;;4.15;0.60;;;;;;;15.13;44.04;100285.50;5013638;28;20056;-71
2022/10/24 11:31:28;;;;;;;3.70;0.20;;;;;;;15.21;44.16;100274.41;5013021;28;20571;-71
2022/10/24 11:33:53;;;;;;;3.53;0.30;;;;;;;15.55;43.97;100284.34;5028505;28;20037;-71
2022/10/24 11:36:26;;;;;;;3.78;0.20;;;;;;;15.43;42.98;100284.34;5029672;28;22708;-71
2022/10/24 11:39:00;;;;;;;7.03;0.57;;;;;;;15.05;43.94;100280.75;5027775;28;20423;-71